createdAt,value
2023-03-17T00:01:10.818Z,96961.78
2023-03-17T00:04:15.330Z,96960.84
2023-03-17T00:07:19.982Z,96964.22
2023-03-17T00:10:26.560Z,96960.81
2023-03-17T00:13:31.120Z,96930.13
2023-03-17T00:16:42.194Z,96954.06
2023-03-17T00:19:46.766Z,96957.41
2023-03-17T00:22:51.619Z,96936.09
2023-03-17T00:25:57.235Z,96957.31
2023-03-17T00:29:01.815Z,96946.38
2023-03-17T00:32:15.745Z,96946.34
2023-03-17T00:35:28.763Z,96954.00
2023-03-17T00:38:33.189Z,96948.88
2023-03-17T00:41:38.272Z,96947.00
2023-03-17T00:44:44.657Z,96931.69
2023-03-17T00:47:50.254Z,96938.63
2023-03-17T00:50:55.096Z,96936.13
2023-03-17T00:54:01.504Z,96933.47
2023-03-17T00:57:09.790Z,96936.06
2023-03-17T01:00:26.406Z,96932.53
2023-03-17T01:03:33.042Z,96930.72
2023-03-17T01:06:37.901Z,96925.66
2023-03-17T01:09:43.868Z,96913.84
2023-03-17T01:12:48.553Z,96918.97
2023-03-17T01:15:53.239Z,96911.31
2023-03-17T01:18:58.433Z,96905.38
2023-03-17T01:22:03.100Z,96898.56
2023-03-17T01:25:07.984Z,96895.81
2023-03-17T01:28:18.638Z,96902.63
2023-03-17T01:31:24.250Z,96889.88
2023-03-17T01:34:29.285Z,96865.19
2023-03-17T01:37:33.766Z,96876.38
2023-03-17T01:40:44.136Z,96874.47
2023-03-17T01:43:48.757Z,96882.25
2023-03-17T01:46:54.605Z,96836.09
2023-03-17T01:50:05.217Z,96849.91
2023-03-17T01:53:12.060Z,96836.91
2023-03-17T01:56:18.012Z,96860.09
2023-03-17T01:59:28.676Z,96847.19
2023-03-17T02:02:37.714Z,96854.91
2023-03-17T02:05:44.109Z,96857.28
2023-03-17T02:08:48.603Z,96851.31
2023-03-17T02:11:53.854Z,96852.97
2023-03-17T02:15:00.198Z,96848.72
2023-03-17T02:18:04.803Z,96842.72
2023-03-17T02:21:33.563Z,96837.56
2023-03-17T02:24:43.216Z,96836.69
2023-03-17T02:28:01.597Z,96830.78
2023-03-17T02:31:06.352Z,96819.66
2023-03-17T02:34:11.489Z,96821.59
2023-03-17T02:37:18.149Z,96810.53
2023-03-17T02:40:23.078Z,96811.31
2023-03-17T02:43:27.606Z,96809.50
2023-03-17T02:46:34.009Z,96812.88
2023-03-17T02:49:41.502Z,96798.56
2023-03-17T02:52:45.990Z,96804.63
2023-03-17T02:55:50.680Z,96804.59
2023-03-17T02:58:55.707Z,96808.09
2023-03-17T03:02:01.019Z,96805.41
2023-03-17T03:05:07.292Z,96805.47
2023-03-17T03:08:13.448Z,96766.34
2023-03-17T03:11:18.432Z,96802.13
2023-03-17T03:14:23.666Z,96798.66
2023-03-17T03:17:28.201Z,96806.16
2023-03-17T03:20:32.825Z,96807.88
2023-03-17T03:23:37.455Z,96809.47
2023-03-17T03:26:42.357Z,96808.72
2023-03-17T03:29:46.942Z,96811.16
2023-03-17T03:32:51.616Z,96805.28
2023-03-17T03:35:57.987Z,96818.03
2023-03-17T03:39:03.165Z,96812.97
2023-03-17T03:42:07.658Z,96801.94
2023-03-17T03:45:12.270Z,96806.19
2023-03-17T03:48:18.218Z,96818.97
2023-03-17T03:51:22.818Z,96794.25
2023-03-17T03:54:27.300Z,96817.38
2023-03-17T03:57:32.028Z,96817.44
2023-03-17T04:00:37.149Z,96820.03
2023-03-17T04:03:41.717Z,96814.09
2023-03-17T04:06:46.265Z,96808.13
2023-03-17T04:09:50.831Z,96813.13
2023-03-17T04:12:56.248Z,96808.69
2023-03-17T04:16:01.639Z,96807.72
2023-03-17T04:19:06.768Z,96809.59
2023-03-17T04:22:13.321Z,96796.81
2023-03-17T04:25:18.078Z,96776.47
2023-03-17T04:28:22.645Z,96779.88
2023-03-17T04:31:27.451Z,96774.63
2023-03-17T04:34:32.540Z,96765.22
2023-03-17T04:37:38.858Z,96765.16
2023-03-17T04:40:44.576Z,96710.69
2023-03-17T04:43:49.065Z,96764.28
2023-03-17T04:46:53.677Z,96751.53
2023-03-17T04:49:58.471Z,96758.97
2023-03-17T04:53:02.946Z,96759.06
2023-03-17T04:56:07.468Z,96760.06
2023-03-17T04:59:12.060Z,96759.38
2023-03-17T05:02:18.041Z,96752.50
2023-03-17T05:05:22.733Z,96744.81
2023-03-17T05:08:28.473Z,96760.22
2023-03-17T05:11:32.973Z,96766.28
2023-03-17T05:14:37.664Z,96776.34
2023-03-17T05:17:42.306Z,96769.56
2023-03-17T05:20:46.971Z,96758.59
2023-03-17T05:23:54.514Z,96772.91
2023-03-17T05:27:01.193Z,96766.19
2023-03-17T05:30:06.155Z,96768.78
2023-03-17T05:33:10.693Z,96774.66
2023-03-17T05:36:16.262Z,96765.25
2023-03-17T05:39:22.423Z,96729.38
2023-03-17T05:42:27.142Z,96764.97
2023-03-17T05:45:32.035Z,96766.81
2023-03-17T05:48:36.824Z,96760.75
2023-03-17T05:51:41.994Z,96771.19
2023-03-17T05:54:48.885Z,96770.41
2023-03-17T05:57:53.592Z,96765.34
2023-03-17T06:00:59.310Z,96766.31
2023-03-17T06:04:05.456Z,96737.25
2023-03-17T06:07:10.401Z,96769.81
2023-03-17T06:10:15.365Z,96762.09
2023-03-17T06:13:19.971Z,96772.25
2023-03-17T06:16:24.604Z,96775.63
2023-03-17T06:19:30.207Z,96783.09
2023-03-17T06:22:34.808Z,96779.88
2023-03-17T06:25:39.346Z,96771.47
2023-03-17T06:28:43.837Z,96767.28
2023-03-17T06:31:50.855Z,96762.19
2023-03-17T06:34:55.402Z,96768.13
2023-03-17T06:38:00.931Z,96762.06
2023-03-17T06:41:05.843Z,96763.91
2023-03-17T06:44:10.505Z,96764.78
2023-03-17T06:47:15.116Z,96770.72
2023-03-17T06:50:20.032Z,96745.97
2023-03-17T06:53:24.669Z,96771.59
2023-03-17T06:56:30.683Z,96779.25
2023-03-17T06:59:35.404Z,96781.75
2023-03-17T07:02:40.320Z,96771.50
2023-03-17T07:05:44.836Z,96778.41
2023-03-17T07:08:50.826Z,96771.53
2023-03-17T07:11:55.374Z,96763.72
2023-03-17T07:15:00.037Z,96766.25
2023-03-17T07:18:07.033Z,96750.75
2023-03-17T07:21:11.954Z,96779.72
2023-03-17T07:24:16.600Z,96759.16
2023-03-17T07:27:23.224Z,96781.13
2023-03-17T07:30:28.584Z,96786.88
2023-03-17T07:33:33.737Z,96783.50
2023-03-17T07:36:38.481Z,96777.66
2023-03-17T07:39:43.706Z,96773.66
2023-03-17T07:42:48.214Z,96776.81
2023-03-17T07:45:52.938Z,96776.44
2023-03-17T07:48:57.607Z,96772.16
2023-03-17T07:52:02.222Z,96772.97
2023-03-17T07:55:10.658Z,96752.69
2023-03-17T07:58:16.000Z,96750.06
2023-03-17T08:01:20.567Z,96743.34
2023-03-17T08:04:27.604Z,96737.56
2023-03-17T08:07:32.115Z,96738.56
2023-03-17T08:10:36.678Z,96733.44
2023-03-17T08:13:41.255Z,96730.69
2023-03-17T08:16:45.902Z,96733.19
2023-03-17T08:19:51.419Z,96701.38
2023-03-17T08:22:57.651Z,96736.56
2023-03-17T08:26:04.186Z,96709.78
2023-03-17T08:29:09.602Z,96713.63
2023-03-17T08:32:14.885Z,96714.25
2023-03-17T08:35:19.642Z,96699.53
2023-03-17T08:38:24.190Z,96706.00
2023-03-17T08:41:28.797Z,96707.75
2023-03-17T08:44:34.265Z,96702.25
2023-03-17T08:47:40.031Z,96705.91
2023-03-17T08:50:45.208Z,96705.59
2023-03-17T08:53:50.360Z,96712.97
2023-03-17T08:56:54.906Z,96710.41
2023-03-17T08:59:59.434Z,96709.78
2023-03-17T09:03:05.673Z,96711.81
2023-03-17T09:06:12.382Z,96710.63
2023-03-17T09:09:17.503Z,96708.19
2023-03-17T09:12:22.405Z,96690.25
2023-03-17T09:15:27.653Z,96682.75
2023-03-17T09:18:33.015Z,96680.94
2023-03-17T09:21:39.464Z,96628.41
2023-03-17T09:24:44.404Z,96673.66
2023-03-17T09:27:49.040Z,96676.13
2023-03-17T09:30:58.491Z,96682.41
2023-03-17T09:34:05.059Z,96675.09
2023-03-17T09:37:09.731Z,96667.16
2023-03-17T09:40:21.103Z,96661.94
2023-03-17T09:43:43.826Z,96665.16
2023-03-17T09:47:07.123Z,96664.66
2023-03-17T09:50:19.027Z,96669.16
2023-03-17T09:53:27.890Z,96654.03
2023-03-17T09:56:34.772Z,96645.03
2023-03-17T09:59:43.773Z,96633.47
2023-03-17T10:02:48.804Z,96636.16
2023-03-17T10:05:58.854Z,96636.94
2023-03-17T10:09:26.188Z,96606.50
2023-03-17T10:12:42.993Z,96632.75
2023-03-17T10:15:52.962Z,96625.28
2023-03-17T10:19:04.480Z,96601.59
2023-03-17T10:22:57.961Z,96606.00
2023-03-17T10:26:08.120Z,96591.91
2023-03-17T10:29:24.014Z,96583.91
2023-03-17T10:32:31.111Z,96590.47
2023-03-17T10:35:37.467Z,96594.72
2023-03-17T10:38:51.923Z,96582.31
2023-03-17T10:42:15.332Z,96583.28
2023-03-17T10:45:34.825Z,96574.22
2023-03-17T10:48:39.826Z,96576.81
2023-03-17T10:51:46.596Z,96570.81
2023-03-17T10:54:51.327Z,96569.22
2023-03-17T10:58:03.191Z,96580.88
2023-03-17T11:01:09.896Z,96576.25
2023-03-17T11:04:35.533Z,96559.53
2023-03-17T11:07:40.625Z,96569.03
2023-03-17T11:10:45.727Z,96571.94
2023-03-17T11:13:50.306Z,96574.56
2023-03-17T11:17:00.277Z,96563.19
2023-03-17T11:20:04.957Z,96564.63
2023-03-17T11:23:43.564Z,96565.94
2023-03-17T11:27:24.049Z,96554.97
2023-03-17T11:30:35.331Z,96551.84
2023-03-17T11:33:57.144Z,96546.22
2023-03-17T11:37:29.333Z,96537.94
2023-03-17T11:40:34.146Z,96529.34
2023-03-17T11:43:59.475Z,96532.41
2023-03-17T11:47:31.761Z,96525.56
2023-03-17T11:51:01.952Z,96527.34
2023-03-17T11:54:08.075Z,96522.06
2023-03-17T11:57:27.107Z,96526.56
2023-03-17T12:00:36.580Z,96518.16
2023-03-17T12:04:07.830Z,96501.72
2023-03-17T12:07:21.335Z,96497.84
2023-03-17T12:10:33.958Z,96484.91
2023-03-17T12:13:40.970Z,96487.56
2023-03-17T12:16:55.737Z,96479.53
2023-03-17T12:20:16.423Z,96485.75
2023-03-17T12:23:38.145Z,96481.72
2023-03-17T12:27:05.860Z,96481.81
2023-03-17T12:30:45.397Z,96491.50
2023-03-17T12:33:54.948Z,96488.78
2023-03-17T12:36:59.621Z,96483.09
2023-03-17T12:40:10.473Z,96463.47
2023-03-17T12:43:27.036Z,96474.44
2023-03-17T12:46:37.673Z,96477.56
2023-03-17T12:49:56.944Z,96471.97
2023-03-17T12:53:19.810Z,96465.16
2023-03-17T12:56:27.651Z,96461.66
2023-03-17T12:59:34.007Z,96448.66
2023-03-17T13:02:39.612Z,96452.25
2023-03-17T13:05:51.083Z,96453.69
2023-03-17T13:08:55.557Z,96449.16
2023-03-17T13:12:03.277Z,96449.06
2023-03-17T13:15:22.660Z,96434.72
2023-03-17T13:18:46.457Z,96437.13
2023-03-17T13:22:04.536Z,96425.34
2023-03-17T13:25:29.748Z,96424.59
2023-03-17T13:28:34.774Z,96414.66
2023-03-17T13:31:39.423Z,96411.94
2023-03-17T13:35:07.584Z,96406.53
2023-03-17T13:38:36.964Z,96409.84
2023-03-17T13:42:01.071Z,96397.38
2023-03-17T13:45:38.955Z,96401.22
2023-03-17T13:48:43.869Z,96398.81
2023-03-17T13:52:03.428Z,96401.06
2023-03-17T13:55:23.653Z,96389.13
2023-03-17T13:58:33.225Z,96383.53
2023-03-17T14:02:03.365Z,96386.69
2023-03-17T14:05:18.188Z,96389.75
2023-03-17T14:08:35.561Z,96388.47
2023-03-17T14:11:41.903Z,96384.50
2023-03-17T14:14:55.862Z,96382.59
2023-03-17T14:18:18.571Z,96377.31
2023-03-17T14:21:32.540Z,96376.28
2023-03-17T14:24:37.082Z,96373.53
2023-03-17T14:27:41.683Z,96367.53
2023-03-17T14:30:47.231Z,96372.56
2023-03-17T14:33:56.092Z,96360.44
2023-03-17T14:37:04.791Z,96356.16
2023-03-17T14:40:25.081Z,96346.34
2023-03-17T14:43:30.209Z,96332.88
2023-03-17T14:46:37.835Z,96338.03
2023-03-17T14:49:42.826Z,96340.16
2023-03-17T14:52:49.348Z,96332.41
2023-03-17T14:55:53.995Z,96336.91
2023-03-17T14:59:18.204Z,96332.31
2023-03-17T15:02:29.078Z,96327.09
2023-03-17T15:05:42.495Z,96324.66
2023-03-17T15:08:47.196Z,96316.28
2023-03-17T15:11:56.116Z,96318.25
2023-03-17T15:15:09.076Z,96325.38
2023-03-17T15:18:15.318Z,96321.41
2023-03-17T15:21:41.282Z,96313.31
2023-03-17T15:24:51.402Z,96323.03
2023-03-17T15:27:55.952Z,96326.41
2023-03-17T15:31:12.249Z,96330.47
2023-03-17T15:34:16.957Z,96328.91
2023-03-17T15:37:24.528Z,96326.28
2023-03-17T15:40:29.546Z,96327.09
2023-03-17T15:43:34.896Z,96328.25
2023-03-17T15:46:39.402Z,96325.84
2023-03-17T15:49:45.522Z,96318.72
2023-03-17T15:52:55.598Z,96321.81
2023-03-17T15:56:00.373Z,96323.16
2023-03-17T15:59:04.861Z,96326.34
2023-03-17T16:02:26.264Z,96321.63
2023-03-17T16:05:33.560Z,96326.50
2023-03-17T16:08:38.512Z,96328.88
2023-03-17T16:11:43.560Z,96320.84
2023-03-17T16:14:48.233Z,96323.16
2023-03-17T16:17:55.654Z,96298.63
2023-03-17T16:21:02.764Z,96292.88
2023-03-17T16:24:17.181Z,96319.19
2023-03-17T16:27:21.643Z,96320.97
2023-03-17T16:30:29.636Z,96330.91
2023-03-17T16:33:40.227Z,96332.31
2023-03-17T16:36:44.784Z,96333.56
2023-03-17T16:39:52.146Z,96331.81
2023-03-17T16:42:56.623Z,96339.34
2023-03-17T16:46:03.065Z,96335.63
2023-03-17T16:49:07.735Z,96332.72
2023-03-17T16:52:12.256Z,96324.13
2023-03-17T16:55:17.888Z,96342.69
2023-03-17T16:58:34.267Z,96342.63
2023-03-17T17:01:38.780Z,96342.31
2023-03-17T17:04:43.328Z,96348.44
2023-03-17T17:07:48.427Z,96345.56
2023-03-17T17:10:53.005Z,96345.19
2023-03-17T17:13:59.707Z,96342.63
2023-03-17T17:17:04.725Z,96344.25
2023-03-17T17:20:16.598Z,96351.91
2023-03-17T17:23:24.205Z,96355.44
2023-03-17T17:26:28.698Z,96352.00
2023-03-17T17:29:33.223Z,96348.03
2023-03-17T17:32:37.904Z,96350.66
2023-03-17T17:35:43.909Z,96344.06
2023-03-17T17:38:48.596Z,96347.19
2023-03-17T17:41:53.139Z,96343.59
2023-03-17T17:44:57.718Z,96356.84
2023-03-17T17:48:03.294Z,96358.75
2023-03-17T17:51:07.838Z,96361.22
2023-03-17T17:54:12.441Z,96361.84
2023-03-17T17:57:17.157Z,96359.16
2023-03-17T18:00:21.745Z,96362.25
2023-03-17T18:03:26.896Z,96363.34
2023-03-17T18:06:31.439Z,96369.19
2023-03-17T18:09:37.438Z,96316.44
2023-03-17T18:12:42.048Z,96366.84
2023-03-17T18:15:46.759Z,96361.22
2023-03-17T18:18:51.646Z,96364.47
2023-03-17T18:21:56.183Z,96361.16
2023-03-17T18:25:01.146Z,96354.94
2023-03-17T18:28:06.265Z,96357.13
2023-03-17T18:31:18.734Z,96359.94
2023-03-17T18:34:31.751Z,96316.75
2023-03-17T18:37:36.898Z,96365.31
2023-03-17T18:40:42.191Z,96359.47
2023-03-17T18:43:46.666Z,96356.41
2023-03-17T18:46:51.141Z,96350.97
2023-03-17T18:49:56.558Z,96345.66
2023-03-17T18:53:01.140Z,96329.81
2023-03-17T18:56:06.027Z,96339.88
2023-03-17T18:59:10.637Z,96339.84
2023-03-17T19:02:15.364Z,96337.53
2023-03-17T19:05:20.247Z,96331.13
2023-03-17T19:08:24.798Z,96332.13
2023-03-17T19:11:29.699Z,96336.69
2023-03-17T19:14:34.849Z,96332.22
2023-03-17T19:17:39.438Z,96340.16
2023-03-17T19:20:43.926Z,96335.94
2023-03-17T19:23:49.608Z,96330.22
2023-03-17T19:26:54.151Z,96332.03
2023-03-17T19:29:58.700Z,96324.41
2023-03-17T19:33:03.383Z,96332.50
2023-03-17T19:36:12.854Z,96335.06
2023-03-17T19:39:17.870Z,96327.34
2023-03-17T19:42:22.326Z,96330.84
2023-03-17T19:45:27.151Z,96327.97
2023-03-17T19:48:32.045Z,96326.09
2023-03-17T19:51:38.291Z,96326.03
2023-03-17T19:54:45.255Z,96327.84
2023-03-17T19:57:50.154Z,96325.44
2023-03-17T20:00:54.748Z,96331.09
2023-03-17T20:03:59.370Z,96329.28
2023-03-17T20:07:05.680Z,96288.00
2023-03-17T20:10:11.005Z,96339.75
2023-03-17T20:13:15.666Z,96335.31
2023-03-17T20:16:20.415Z,96335.81
2023-03-17T20:19:25.190Z,96336.25
2023-03-17T20:22:29.646Z,96343.19
2023-03-17T20:25:34.218Z,96331.38
2023-03-17T20:28:38.763Z,96341.81
2023-03-17T20:31:43.818Z,96337.56
2023-03-17T20:34:48.885Z,96341.94
2023-03-17T20:37:56.810Z,96335.88
2023-03-17T20:41:08.962Z,96332.75
2023-03-17T20:44:13.966Z,96334.50
2023-03-17T20:47:19.977Z,96333.75
2023-03-17T20:50:24.913Z,96333.25
2023-03-17T20:53:30.461Z,96283.72
2023-03-17T20:56:35.075Z,96329.44
2023-03-17T20:59:41.577Z,96323.63
2023-03-17T21:02:49.984Z,96326.91
2023-03-17T21:05:54.561Z,96336.56
2023-03-17T21:09:00.485Z,96334.25
2023-03-17T21:12:05.014Z,96329.41
2023-03-17T21:15:11.004Z,96341.25
2023-03-17T21:18:15.520Z,96334.97
2023-03-17T21:21:21.686Z,96334.56
2023-03-17T21:24:32.315Z,96338.97
2023-03-17T21:27:37.751Z,96342.00
2023-03-17T21:30:44.013Z,96317.50
2023-03-17T21:33:50.430Z,96336.56
2023-03-17T21:36:55.342Z,96336.47
2023-03-17T21:40:00.172Z,96332.63
2023-03-17T21:43:05.675Z,96336.28
2023-03-17T21:46:10.571Z,96335.84
2023-03-17T21:49:16.340Z,96334.94
2023-03-17T21:52:22.363Z,96335.41
2023-03-17T21:55:27.136Z,96331.16
2023-03-17T21:58:31.762Z,96331.97
2023-03-17T22:01:37.969Z,96331.84
2023-03-17T22:04:43.314Z,96327.56
2023-03-17T22:07:48.353Z,96333.59
2023-03-17T22:10:52.983Z,96331.66
2023-03-17T22:13:58.537Z,96328.09
2023-03-17T22:17:05.274Z,96332.00
2023-03-17T22:20:10.566Z,96335.47
2023-03-17T22:23:15.155Z,96335.00
2023-03-17T22:26:21.444Z,96339.00
2023-03-17T22:29:26.422Z,96327.34
2023-03-17T22:32:32.719Z,96307.84
2023-03-17T22:35:37.963Z,96342.38
2023-03-17T22:38:42.542Z,96343.53
2023-03-17T22:41:47.006Z,96333.84
2023-03-17T22:44:51.690Z,96339.31
2023-03-17T22:47:56.394Z,96343.97
2023-03-17T22:51:02.122Z,96325.88
2023-03-17T22:54:08.723Z,96346.38
2023-03-17T22:57:13.316Z,96349.41
2023-03-17T23:00:18.241Z,96351.00
2023-03-17T23:03:24.138Z,96365.13
2023-03-17T23:06:28.689Z,96364.03
2023-03-17T23:09:33.569Z,96369.91
2023-03-17T23:12:39.491Z,96369.09
2023-03-17T23:15:44.489Z,96381.09
2023-03-17T23:18:49.497Z,96370.53
2023-03-17T23:21:54.003Z,96366.84
2023-03-17T23:25:00.292Z,96374.44
2023-03-17T23:28:05.686Z,96390.69
2023-03-17T23:31:10.994Z,96381.66
2023-03-17T23:34:15.903Z,96393.53
2023-03-17T23:37:20.404Z,96400.22
2023-03-17T23:40:24.972Z,96400.75
2023-03-17T23:43:29.470Z,96396.94
2023-03-17T23:46:34.080Z,96409.53
2023-03-17T23:49:39.016Z,96411.94
2023-03-17T23:52:43.739Z,96421.41
2023-03-17T23:55:48.333Z,96421.34
2023-03-17T23:58:52.986Z,96424.38
